Time;durP1;ratioP1;P1;durP2;ratioP2;P2;SDS_P1;SDS_P2;PMS_P1;PMS_P2;Temp;Humidity;BMP_temperature;BMP_pressure;BME280_temperature;BME280_humidity;BME280_pressure;Samples;Min_cycle;Max_cycle;Signal;HPM_P1;HPM_P2
2022/12/10 00:00:33;;;;;;;65.90;20.83;;;;;;;-141.97;100.00;47926.56;5035219;28;20166;-85
2022/12/10 00:02:58;;;;;;;58.53;19.07;;;;;;;-141.97;100.00;47899.66;5035274;28;20682;-85
2022/12/10 00:05:24;;;;;;;58.90;19.13;;;;;;;-141.97;100.00;47872.75;5035142;28;20174;-85
2022/12/10 00:07:49;;;;;;;59.27;19.60;;;;;;;-141.97;100.00;47899.66;5035255;28;20247;-85
2022/12/10 00:10:15;;;;;;;79.73;25.80;;;;;;;-141.97;100.00;47915.03;5035912;28;20162;-85
2022/12/10 00:12:40;;;;;;;61.67;21.30;;;;;;;-141.97;100.00;47918.88;5034888;28;20213;-84
2022/12/10 00:15:06;;;;;;;75.67;21.93;;;;;;;-141.97;100.00;47926.56;5042609;28;20165;-85
2022/12/10 00:17:31;;;;;;;76.70;24.57;;;;;;;-141.97;100.00;47936.19;5053289;28;20191;-85
2022/12/10 00:19:56;;;;;;;64.00;21.53;;;;;;;-141.97;100.00;47878.53;5053684;28;20229;-84
2022/12/10 00:22:22;;;;;;;66.40;21.00;;;;;;;-141.97;100.00;47941.94;5053458;28;20173;-84
2022/12/10 00:24:47;;;;;;;70.43;20.93;;;;;;;-141.97;100.00;47949.66;5053470;28;20189;-84
2022/12/10 00:27:14;;;;;;;68.17;20.37;;;;;;;-141.97;100.00;47918.88;5053054;28;20173;-84
2022/12/10 00:29:39;;;;;;;68.10;20.40;;;;;;;-141.97;100.00;47926.56;5052478;28;20641;-83
2022/12/10 00:32:05;;;;;;;60.80;19.53;;;;;;;-141.97;100.00;47947.72;5053589;28;20165;-84
2022/12/10 00:34:31;;;;;;;69.93;20.70;;;;;;;-141.97;100.00;47895.81;5046102;28;20159;-86
2022/12/10 00:36:56;;;;;;;72.27;21.13;;;;;;;-141.97;100.00;47874.69;5033590;28;20205;-83
2022/12/10 00:39:22;;;;;;;73.53;21.90;;;;;;;-141.97;100.00;47930.41;5032275;28;20266;-84
2022/12/10 00:41:48;;;;;;;75.03;22.73;;;;;;;-141.97;100.00;47936.19;5043858;28;20169;-82
2022/12/10 00:44:15;;;;;;;83.47;24.53;;;;;;;-141.97;100.00;47907.34;5045085;28;20246;-83
2022/12/10 00:46:40;;;;;;;80.07;22.73;;;;;;;-141.97;100.00;47882.38;5036098;28;20253;-84
2022/12/10 00:49:05;;;;;;;92.37;25.47;;;;;;;-141.97;100.00;47861.22;5033612;28;20169;-84
2022/12/10 00:51:31;;;;;;;94.30;25.73;;;;;;;-141.97;100.00;47918.88;5033225;28;20249;-83
2022/12/10 00:53:58;;;;;;;93.90;25.70;;;;;;;-141.97;100.00;47899.66;5033213;28;20193;-83
2022/12/10 00:56:28;;;;;;;106.77;27.87;;;;;;;-141.97;100.00;47922.72;5031524;28;20212;-83
2022/12/10 00:58:54;;;;;;;95.07;25.97;;;;;;;-141.97;100.00;47861.22;5032087;28;20711;-83
2022/12/10 01:01:26;;;;;;;117.03;27.17;;;;;;;-141.97;100.00;47895.81;5033420;28;20250;-83
2022/12/10 01:03:54;;;;;;;117.37;27.87;;;;;;;-141.97;100.00;47915.03;5033752;28;20177;-83
2022/12/10 01:06:22;;;;;;;106.87;28.00;;;;;;;-141.97;100.00;47872.75;5037517;28;20248;-83
2022/12/10 01:08:49;;;;;;;116.00;28.23;;;;;;;-141.97;100.00;47972.72;5053498;28;20679;-84
2022/12/10 01:11:16;;;;;;;111.73;29.57;;;;;;;-141.97;100.00;47949.66;5052954;28;20173;-83
2022/12/10 01:13:43;;;;;;;132.07;31.57;;;;;;;-141.97;100.00;47861.22;5052804;28;20653;-83
2022/12/10 01:16:11;;;;;;;116.47;29.50;;;;;;;-141.97;100.00;47938.09;5052559;28;20205;-83
2022/12/10 01:18:36;;;;;;;100.80;27.80;;;;;;;-141.97;100.00;47922.72;5052432;28;20235;-83
2022/12/10 01:21:04;;;;;;;100.07;27.03;;;;;;;-141.97;100.00;47909.28;5053282;28;20590;-83
2022/12/10 01:23:32;;;;;;;105.03;28.17;;;;;;;-141.97;100.00;47924.66;5052422;28;20173;-83
2022/12/10 01:26:00;;;;;;;107.80;26.80;;;;;;;-141.97;100.00;47959.25;5052191;28;20208;-83
2022/12/10 01:28:27;;;;;;;109.97;27.77;;;;;;;-141.97;100.00;47765.09;5052316;28;20169;-83
2022/12/10 01:30:52;;;;;;;115.73;30.23;;;;;;;-141.97;100.00;47901.59;5052632;28;20165;-83
2022/12/10 01:33:18;;;;;;;109.80;30.00;;;;;;;-141.97;100.00;47857.38;5051025;28;20659;-84
2022/12/10 01:35:43;;;;;;;115.43;30.70;;;;;;;-141.97;100.00;47824.69;5032583;28;20610;-84
2022/12/10 01:38:08;;;;;;;112.07;30.80;;;;;;;-141.97;100.00;47918.88;5031042;28;20231;-84
2022/12/10 01:40:37;;;;;;;116.13;30.37;;;;;;;-141.97;100.00;47961.19;5031913;28;20672;-84
2022/12/10 01:43:03;;;;;;;128.97;32.67;;;;;;;-141.97;100.00;47901.59;5033498;28;20414;-84
2022/12/10 01:45:29;;;;;;;118.43;31.87;;;;;;;-141.97;100.00;47922.72;5031800;28;20353;-84
2022/12/10 01:47:54;;;;;;;118.43;31.10;;;;;;;-141.97;100.00;47907.34;5032028;28;20184;-84
2022/12/10 01:50:20;;;;;;;123.97;32.63;;;;;;;-141.97;100.00;47993.84;5031878;28;20204;-84
2022/12/10 01:52:45;;;;;;;123.73;33.53;;;;;;;-141.97;100.00;47895.81;5031728;28;20182;-84
2022/12/10 01:55:36;;;;;;;141.60;39.00;;;;;;;-141.97;100.00;47907.34;5031629;28;20166;-84
2022/12/10 01:58:01;;;;;;;133.17;37.20;;;;;;;-141.97;100.00;47951.56;5031578;28;20177;-84
2022/12/10 02:00:27;;;;;;;125.53;34.07;;;;;;;-141.97;100.00;47909.28;5031717;28;20642;-83
2022/12/10 02:03:05;;;;;;;121.00;35.07;;;;;;;-141.97;100.00;47901.59;5046815;28;20571;-84
2022/12/10 02:05:40;;;;;;;134.40;40.10;;;;;;;-141.97;100.00;47866.97;5053759;28;20177;-84
2022/12/10 02:08:26;;;;;;;131.23;36.83;;;;;;;-141.97;100.00;47897.75;5060417;28;20176;-84
2022/12/10 02:11:22;;;;;;;125.57;34.80;;;;;;;-141.97;100.00;47941.94;5058474;28;20180;-84
2022/12/10 02:14:38;;;;;;;123.23;35.10;;;;;;;-141.97;100.00;47884.28;5055344;28;20197;-83
2022/12/10 02:17:12;;;;;;;116.10;31.63;;;;;;;-141.97;100.00;47930.41;4972307;28;20230;-84
2022/12/10 02:19:40;;;;;;;104.93;31.43;;;;;;;-141.97;100.00;47930.41;4972800;28;20259;-84
2022/12/10 02:22:09;;;;;;;104.93;29.57;;;;;;;-141.97;100.00;47915.03;4974242;28;20179;-84
2022/12/10 02:24:36;;;;;;;101.47;29.27;;;;;;;-141.97;100.00;47922.72;4975081;28;20251;-83
2022/12/10 02:27:11;;;;;;;103.13;29.30;;;;;;;-141.97;100.00;47826.63;4980851;28;20499;-83
2022/12/10 02:29:38;;;;;;;97.67;29.10;;;;;;;-141.97;100.00;47951.56;4968606;28;20179;-83
2022/12/10 02:32:03;;;;;;;100.47;30.63;;;;;;;-141.97;100.00;47938.09;4991436;28;20211;-84
2022/12/10 02:34:33;;;;;;;103.63;30.33;;;;;;;-141.97;100.00;47903.50;4980662;28;20270;-84
2022/12/10 02:37:07;;;;;;;107.03;31.17;;;;;;;-141.97;100.00;47915.03;4961833;28;20720;-83
2022/12/10 02:39:38;;;;;;;95.00;30.83;;;;;;;-141.97;100.00;47915.03;4973416;28;20297;-84
2022/12/10 02:42:05;;;;;;;106.37;32.63;;;;;;;-141.97;100.00;47895.81;4971659;28;20235;-84
2022/12/10 02:44:32;;;;;;;107.17;31.37;;;;;;;-141.97;100.00;47916.97;4974244;28;20684;-83
2022/12/10 02:46:59;;;;;;;98.07;29.93;;;;;;;-141.97;100.00;47888.13;4973983;28;20222;-84
2022/12/10 02:49:26;;;;;;;93.47;28.63;;;;;;;-141.97;100.00;47899.66;4973367;28;20183;-84
2022/12/10 02:51:53;;;;;;;92.60;27.37;;;;;;;-141.97;100.00;47936.19;4989883;28;20761;-84
2022/12/10 02:54:37;;;;;;;99.60;30.77;;;;;;;-141.97;100.00;47890.06;5031692;28;20252;-84
2022/12/10 02:57:15;;;;;;;102.67;30.03;;;;;;;-141.97;100.00;47901.59;5030349;28;20578;-84
2022/12/10 02:59:40;;;;;;;91.13;27.93;;;;;;;-141.97;100.00;47878.53;5029832;28;20264;-84
2022/12/10 03:02:15;;;;;;;93.90;28.53;;;;;;;-141.97;100.00;47915.03;5031497;28;20190;-86
2022/12/10 03:04:43;;;;;;;99.63;29.17;;;;;;;-141.97;100.00;47899.66;5042706;28;20233;-84
2022/12/10 03:07:17;;;;;;;92.07;28.23;;;;;;;-141.97;100.00;47899.66;5051308;28;20173;-84
2022/12/10 03:09:56;;;;;;;102.30;27.83;;;;;;;-141.97;100.00;47926.56;5049654;28;20177;-84
2022/12/10 03:12:45;;;;;;;103.23;28.60;;;;;;;-141.97;100.00;47915.03;5050798;28;20188;-84
2022/12/10 03:15:11;;;;;;;93.83;26.43;;;;;;;-141.97;100.00;47926.56;5054316;28;20569;-84
2022/12/10 03:17:39;;;;;;;123.27;39.67;;;;;;;-141.97;100.00;47924.66;5053443;28;20213;-84
2022/12/10 03:20:08;;;;;;;99.27;32.20;;;;;;;-141.97;100.00;47884.28;5054362;28;20328;-83
2022/12/10 03:22:37;;;;;;;96.37;30.27;;;;;;;-141.97;100.00;47990.00;5054992;28;20273;-83
2022/12/10 03:25:03;;;;;;;96.27;29.40;;;;;;;-141.97;100.00;48011.16;5054370;28;20169;-83
2022/12/10 03:27:29;;;;;;;88.33;27.30;;;;;;;-141.97;100.00;47907.34;5054608;28;20165;-84
2022/12/10 03:29:58;;;;;;;90.27;26.47;;;;;;;-141.97;100.00;47822.78;5054033;28;20166;-84
2022/12/10 03:32:26;;;;;;;85.77;25.17;;;;;;;-141.97;100.00;47934.25;5053935;28;20813;-84
2022/12/10 03:34:55;;;;;;;89.37;25.40;;;;;;;-141.97;100.00;47938.09;5037525;28;20221;-84
2022/12/10 03:37:22;;;;;;;84.80;25.03;;;;;;;-141.97;100.00;47928.50;5049270;28;20700;-83
2022/12/10 03:39:48;;;;;;;85.03;24.97;;;;;;;-141.97;100.00;48015.00;5032818;28;20174;-83
2022/12/10 03:42:14;;;;;;;87.93;24.90;;;;;;;-141.97;100.00;47913.13;5033999;28;20174;-84
2022/12/10 03:44:42;;;;;;;97.00;25.47;;;;;;;-141.97;100.00;47976.56;5034061;28;20231;-83
2022/12/10 03:47:12;;;;;;;93.70;24.23;;;;;;;-141.97;100.00;47953.50;5033872;28;20170;-83
2022/12/10 03:49:38;;;;;;;82.87;24.23;;;;;;;-141.97;100.00;47940.03;5033713;28;20169;-83
2022/12/10 03:52:04;;;;;;;95.67;25.27;;;;;;;-141.97;100.00;47913.13;5033818;28;20173;-83
2022/12/10 03:54:29;;;;;;;97.23;26.00;;;;;;;-141.97;100.00;47918.88;5033727;28;20185;-83
2022/12/10 03:56:55;;;;;;;97.57;24.90;;;;;;;-141.97;100.00;47951.56;5033603;28;21222;-85
2022/12/10 03:59:20;;;;;;;91.60;25.13;;;;;;;-141.97;100.00;47909.28;5043868;28;20177;-84
2022/12/10 04:01:47;;;;;;;95.27;25.17;;;;;;;-141.97;100.00;47955.41;5060440;28;20170;-81
2022/12/10 04:04:13;;;;;;;91.97;23.97;;;;;;;-141.97;100.00;47897.75;5061402;28;20196;-84
2022/12/10 04:06:40;;;;;;;96.10;26.50;;;;;;;-141.97;100.00;47915.03;5055133;28;20170;-84
2022/12/10 04:09:05;;;;;;;97.67;26.43;;;;;;;-141.97;100.00;47880.44;5054424;28;20176;-84
2022/12/10 04:11:31;;;;;;;104.77;26.13;;;;;;;-141.97;100.00;47897.75;5053699;28;20162;-84
2022/12/10 04:16:40;;;;;;;97.53;25.40;;;;;;;-141.97;100.00;47897.75;5053569;28;20219;-83
2022/12/10 04:19:09;;;;;;;93.40;24.03;;;;;;;-141.97;100.00;47918.88;5053588;28;20689;-84
2022/12/10 04:27:13;;;;;;;91.17;22.60;;;;;;;-141.97;100.00;47916.97;5053396;28;20557;-83
2022/12/10 04:29:39;;;;;;;93.33;23.17;;;;;;;-141.97;100.00;47924.66;5053471;28;20173;-83
2022/12/10 04:32:05;;;;;;;91.20;23.17;;;;;;;-141.97;100.00;47907.34;5053365;28;20166;-83
2022/12/10 04:34:31;;;;;;;89.67;23.10;;;;;;;-141.97;100.00;47913.13;5051839;28;20174;-83
2022/12/10 04:36:58;;;;;;;86.33;22.37;;;;;;;-141.97;100.00;48007.31;5052917;28;20311;-83
2022/12/10 04:39:24;;;;;;;83.47;22.77;;;;;;;-141.97;100.00;47938.09;5053306;28;20252;-83
2022/12/10 04:41:49;;;;;;;70.97;19.87;;;;;;;-141.97;100.00;47951.56;5053108;28;20253;-83
2022/12/10 04:44:15;;;;;;;71.67;20.30;;;;;;;-141.97;100.00;47903.50;5051543;28;20169;-83
2022/12/10 04:46:41;;;;;;;75.40;20.90;;;;;;;-141.97;100.00;47792.03;5052879;28;20157;-82
2022/12/10 04:49:06;;;;;;;70.33;19.27;;;;;;;-141.97;100.00;47913.13;5051944;28;20165;-83
2022/12/10 04:51:32;;;;;;;71.73;20.13;;;;;;;-141.97;100.00;47922.72;5052751;28;20165;-83
2022/12/10 04:53:58;;;;;;;73.90;21.60;;;;;;;-141.97;100.00;47941.94;5051510;28;20216;-83
2022/12/10 04:56:24;;;;;;;79.33;21.67;;;;;;;-141.97;100.00;47938.09;5053112;28;20320;-84
2022/12/10 04:58:50;;;;;;;79.73;21.17;;;;;;;-141.97;100.00;47865.06;5052802;28;20169;-84
2022/12/10 05:01:15;;;;;;;77.77;21.53;;;;;;;-141.97;100.00;47843.91;5053390;28;20294;-83
2022/12/10 05:03:41;;;;;;;84.50;22.40;;;;;;;-141.97;100.00;47897.75;5047480;28;20196;-84
2022/12/10 05:06:10;;;;;;;82.60;22.43;;;;;;;-141.97;100.00;47930.41;5031581;28;20170;-83
2022/12/10 05:08:37;;;;;;;94.50;23.70;;;;;;;-141.97;100.00;48003.47;5032617;28;20170;-82
2022/12/10 05:11:10;;;;;;;85.10;22.90;;;;;;;-141.97;100.00;47916.97;5032659;28;20174;-82
2022/12/10 05:13:36;;;;;;;92.17;23.27;;;;;;;-141.97;100.00;47938.09;5046476;28;20335;-83
2022/12/10 05:16:03;;;;;;;86.53;22.17;;;;;;;-141.97;100.00;47934.25;5032404;28;20248;-83
2022/12/10 05:18:29;;;;;;;90.40;22.17;;;;;;;-141.97;100.00;47886.22;5032260;28;20173;-83
2022/12/10 05:20:57;;;;;;;89.00;20.43;;;;;;;-141.97;100.00;48051.53;5032572;28;20646;-83
2022/12/10 05:23:28;;;;;;;92.67;22.37;;;;;;;-141.97;100.00;48013.06;5032391;28;20169;-82
2022/12/10 05:26:05;;;;;;;112.40;30.90;;;;;;;-141.97;100.00;47924.66;5034598;28;20182;-84
2022/12/10 05:28:34;;;;;;;116.30;31.37;;;;;;;-141.97;100.00;47961.19;5033246;28;20165;-83
2022/12/10 05:31:00;;;;;;;108.70;28.90;;;;;;;-141.97;100.00;47945.81;5032434;28;20197;-82
2022/12/10 05:33:25;;;;;;;91.33;23.07;;;;;;;-141.97;100.00;47926.56;5032854;28;20625;-84
2022/12/10 05:36:02;;;;;;;91.73;22.80;;;;;;;-141.97;100.00;47899.66;5038853;28;20213;-86
2022/12/10 05:38:30;;;;;;;83.67;22.37;;;;;;;-141.97;100.00;47938.09;5051737;28;20173;-83
2022/12/10 05:41:01;;;;;;;92.80;22.90;;;;;;;-141.97;100.00;48003.47;5050728;28;20182;-82
2022/12/10 05:43:27;;;;;;;106.73;27.73;;;;;;;-141.97;100.00;47895.81;5052038;28;20244;-83
2022/12/10 05:45:52;;;;;;;94.30;22.77;;;;;;;-141.97;100.00;47926.56;5051948;28;20174;-83
2022/12/10 05:48:18;;;;;;;99.73;23.20;;;;;;;-141.97;100.00;47922.72;5052330;28;20165;-83
2022/12/10 05:50:44;;;;;;;98.27;25.80;;;;;;;-141.97;100.00;47918.88;5052257;28;20173;-83
2022/12/10 05:53:09;;;;;;;109.13;23.13;;;;;;;-141.97;100.00;47926.56;5052101;28;20165;-83
2022/12/10 05:55:35;;;;;;;102.50;25.87;;;;;;;-141.97;100.00;47934.25;5051711;28;20162;-83
2022/12/10 05:58:00;;;;;;;90.93;21.60;;;;;;;-141.97;100.00;47953.50;5051574;28;20170;-82
2022/12/10 06:00:27;;;;;;;92.07;22.10;;;;;;;-141.97;100.00;47922.72;5051687;28;20173;-82
2022/12/10 06:02:53;;;;;;;101.63;22.87;;;;;;;-141.97;100.00;47832.38;5051316;28;20166;-83
2022/12/10 06:05:18;;;;;;;198.30;51.30;;;;;;;-141.97;100.00;47907.34;5047000;28;20385;-83
2022/12/10 06:07:44;;;;;;;164.37;43.03;;;;;;;-141.97;100.00;47945.81;5032220;28;20166;-82
2022/12/10 06:10:10;;;;;;;119.60;33.90;;;;;;;-141.97;100.00;47907.34;5032445;28;20180;-83
2022/12/10 06:12:35;;;;;;;111.57;27.80;;;;;;;-141.97;100.00;47915.03;5031938;28;20177;-83
2022/12/10 06:15:01;;;;;;;125.00;32.27;;;;;;;-141.97;100.00;47911.19;5049041;28;20177;-83
2022/12/10 06:17:26;;;;;;;123.60;35.00;;;;;;;-141.97;100.00;47916.97;5058337;28;20201;-83
2022/12/10 06:19:52;;;;;;;114.30;30.33;;;;;;;-141.97;100.00;47949.66;5053850;28;20639;-83
2022/12/10 06:22:17;;;;;;;95.10;24.67;;;;;;;-141.97;100.00;47936.19;5049276;28;20651;-83
2022/12/10 06:24:43;;;;;;;83.03;24.13;;;;;;;-141.97;100.00;48003.47;5053657;28;20177;-83
2022/12/10 06:27:08;;;;;;;84.07;23.60;;;;;;;-141.97;100.00;47818.94;5050910;28;20184;-83
2022/12/10 06:29:33;;;;;;;78.77;23.10;;;;;;;-141.97;100.00;47928.50;5039911;28;20248;-83
2022/12/10 06:31:59;;;;;;;79.43;23.93;;;;;;;-141.97;100.00;47918.88;5033688;28;20451;-83
2022/12/10 06:34:24;;;;;;;70.50;23.60;;;;;;;-141.97;100.00;47824.69;5046328;28;20165;-83
2022/12/10 06:36:50;;;;;;;80.73;25.13;;;;;;;-141.97;100.00;47915.03;5051475;28;20208;-82
2022/12/10 06:39:15;;;;;;;115.63;40.13;;;;;;;-141.97;100.00;47895.81;5059056;28;20820;-82
2022/12/10 06:41:43;;;;;;;97.30;29.43;;;;;;;-141.97;100.00;47951.56;5071616;28;20174;-84
2022/12/10 06:44:10;;;;;;;81.80;22.33;;;;;;;-141.97;100.00;47911.19;5059429;28;20247;-83
2022/12/10 06:46:35;;;;;;;90.07;25.50;;;;;;;-141.97;100.00;47918.88;5054993;28;20257;-84
2022/12/10 06:49:01;;;;;;;96.57;30.83;;;;;;;-141.97;100.00;47895.81;5053375;28;20195;-83
2022/12/10 06:51:27;;;;;;;102.10;35.47;;;;;;;-141.97;100.00;47924.66;5054239;28;20192;-84
2022/12/10 06:53:52;;;;;;;99.90;32.50;;;;;;;-141.97;100.00;47907.34;5054106;28;20171;-83
2022/12/10 06:56:19;;;;;;;110.30;36.47;;;;;;;-141.97;100.00;47861.22;5052657;28;20283;-84
2022/12/10 06:58:45;;;;;;;116.80;40.20;;;;;;;-141.97;100.00;47938.09;5051999;28;20165;-83
2022/12/10 07:01:16;;;;;;;80.40;26.83;;;;;;;-141.97;100.00;47893.91;5052229;28;20220;-83
2022/12/10 07:03:43;;;;;;;78.10;26.13;;;;;;;-141.97;100.00;47897.75;5041529;28;20175;-83
2022/12/10 07:06:10;;;;;;;108.23;39.83;;;;;;;-141.97;100.00;47903.50;5031850;28;20173;-83
2022/12/10 07:08:36;;;;;;;117.77;48.50;;;;;;;-141.97;100.00;47951.56;5031636;28;20171;-84
2022/12/10 07:11:11;;;;;;;75.27;27.67;;;;;;;-141.97;100.00;47953.50;5030918;28;20320;-83
2022/12/10 07:13:37;;;;;;;84.83;33.13;;;;;;;-141.97;100.00;48026.53;5051080;28;20203;-84
2022/12/10 07:16:11;;;;;;;66.60;25.63;;;;;;;-141.97;100.00;47947.72;5051068;28;20288;-84
2022/12/10 07:18:36;;;;;;;73.27;26.07;;;;;;;-141.97;100.00;47897.75;5050762;28;20219;-83
2022/12/10 07:21:01;;;;;;;57.77;21.37;;;;;;;-141.97;100.00;47922.72;5049416;28;20177;-85
2022/12/10 07:23:27;;;;;;;135.67;72.33;;;;;;;-141.97;100.00;47882.38;5050770;28;20485;-84
2022/12/10 07:25:54;;;;;;;67.07;28.43;;;;;;;-141.97;100.00;47915.03;5051126;28;20223;-84
2022/12/10 07:28:19;;;;;;;69.40;27.93;;;;;;;-141.97;100.00;47968.88;5051199;28;20170;-84
2022/12/10 07:30:45;;;;;;;50.13;19.97;;;;;;;-141.97;100.00;47990.00;5049447;28;20176;-83
2022/12/10 07:33:10;;;;;;;46.77;18.27;;;;;;;-141.97;100.00;47945.81;5045248;28;20224;-84
2022/12/10 07:35:38;;;;;;;63.43;23.90;;;;;;;-141.97;100.00;47874.69;5030565;28;20257;-85
2022/12/10 07:38:03;;;;;;;97.77;41.40;;;;;;;-141.97;100.00;47907.34;5029673;28;20709;-84
2022/12/10 07:40:29;;;;;;;59.03;25.27;;;;;;;-141.97;100.00;48015.00;5030766;28;20213;-83
2022/12/10 07:42:54;;;;;;;73.70;31.17;;;;;;;-141.97;100.00;47765.09;5031177;28;20627;-84
2022/12/10 07:45:20;;;;;;;49.40;19.80;;;;;;;-141.97;100.00;47926.56;5029201;28;20189;-84
2022/12/10 07:47:45;;;;;;;44.37;17.23;;;;;;;-141.97;100.00;47870.81;5030643;28;20249;-84
2022/12/10 07:50:10;;;;;;;46.50;16.47;;;;;;;-141.97;100.00;47920.81;5031070;28;20166;-84
2022/12/10 07:52:36;;;;;;;46.43;18.40;;;;;;;-141.97;100.00;47915.03;5031025;28;20204;-83
2022/12/10 07:55:01;;;;;;;46.27;17.97;;;;;;;-141.97;100.00;47836.22;5030819;28;20254;-83
2022/12/10 07:57:29;;;;;;;76.63;32.83;;;;;;;-141.97;100.00;47920.81;5030891;28;20206;-83
2022/12/10 07:59:54;;;;;;;48.00;17.67;;;;;;;-141.97;100.00;47895.81;5031778;28;20161;-83
2022/12/10 08:02:20;;;;;;;50.87;18.93;;;;;;;-141.97;100.00;48011.16;5035390;28;20233;-84
2022/12/10 08:04:45;;;;;;;42.37;17.67;;;;;;;-141.97;100.00;47899.66;5049144;28;20185;-84
2022/12/10 08:07:11;;;;;;;57.03;27.20;;;;;;;-141.97;100.00;47890.06;5037015;28;20194;-83
2022/12/10 08:09:36;;;;;;;50.50;21.40;;;;;;;-141.97;100.00;47845.84;5037467;28;20205;-84
2022/12/10 08:12:02;;;;;;;63.27;24.73;;;;;;;-141.97;100.00;47893.91;5034980;28;20191;-83
2022/12/10 08:14:27;;;;;;;127.50;46.33;;;;;;;-141.97;100.00;47920.81;5036429;28;20165;-83
2022/12/10 08:16:52;;;;;;;116.33;47.63;;;;;;;-141.97;100.00;47972.72;5033043;28;20202;-84
2022/12/10 08:19:18;;;;;;;118.20;59.17;;;;;;;-141.97;100.00;47945.81;5034311;28;20173;-83
2022/12/10 08:21:43;;;;;;;74.23;36.20;;;;;;;-141.97;100.00;47884.28;5034053;28;20581;-84
2022/12/10 08:24:09;;;;;;;63.90;28.20;;;;;;;-141.97;100.00;47926.56;5034221;28;20166;-83
2022/12/10 08:26:34;;;;;;;55.20;22.47;;;;;;;-141.97;100.00;47905.44;5034157;28;20622;-84
2022/12/10 08:29:00;;;;;;;52.87;21.30;;;;;;;-141.97;100.00;47926.56;5036462;28;20178;-84
2022/12/10 08:31:27;;;;;;;45.43;19.67;;;;;;;-141.97;100.00;47922.72;5037417;28;20174;-83
2022/12/10 08:33:53;;;;;;;52.03;20.20;;;;;;;-141.97;100.00;47888.13;5052952;28;20189;-83
2022/12/10 08:36:19;;;;;;;46.37;18.40;;;;;;;-141.97;100.00;47767.03;5059403;28;20224;-82
2022/12/10 08:38:45;;;;;;;42.00;17.80;;;;;;;-141.97;100.00;47918.88;5056218;28;20176;-85
2022/12/10 08:41:14;;;;;;;47.23;18.37;;;;;;;-141.97;100.00;47947.72;5050195;28;20178;-83
2022/12/10 08:43:40;;;;;;;45.00;17.60;;;;;;;-141.97;100.00;47926.56;5033935;28;20289;-83
2022/12/10 08:46:06;;;;;;;46.43;18.17;;;;;;;-141.97;100.00;47842.00;5033909;28;20174;-83
2022/12/10 08:48:32;;;;;;;47.47;17.60;;;;;;;-141.97;100.00;47882.38;5049537;28;20173;-83
2022/12/10 08:50:57;;;;;;;53.83;22.27;;;;;;;-141.97;100.00;47913.13;5034686;28;20243;-84
2022/12/10 08:53:23;;;;;;;93.00;37.90;;;;;;;-141.97;100.00;47834.31;5034706;28;20181;-85
2022/12/10 08:55:53;;;;;;;60.43;25.60;;;;;;;-141.97;100.00;47970.78;5035220;28;20324;-84
2022/12/10 08:58:19;;;;;;;43.97;19.30;;;;;;;-141.97;100.00;47918.88;5033198;28;20188;-83
2022/12/10 09:00:45;;;;;;;42.67;18.57;;;;;;;-141.97;100.00;47978.47;5049858;28;20683;-85
2022/12/10 09:03:10;;;;;;;41.67;18.93;;;;;;;-141.97;100.00;47918.88;5052225;28;20177;-85
2022/12/10 09:05:37;;;;;;;70.10;30.10;;;;;;;-141.97;100.00;47932.34;5052737;28;20259;-85
2022/12/10 09:08:02;;;;;;;59.20;22.87;;;;;;;-141.97;100.00;48041.91;5052713;28;20199;-84
2022/12/10 09:10:28;;;;;;;43.47;19.43;;;;;;;-141.97;100.00;47895.81;5051530;28;20181;-84
2022/12/10 09:12:56;;;;;;;57.77;25.90;;;;;;;-141.97;100.00;47907.34;5052629;28;20185;-82
2022/12/10 09:15:22;;;;;;;56.37;27.67;;;;;;;-141.97;100.00;47938.09;5054319;28;20180;-84
2022/12/10 09:17:48;;;;;;;62.07;31.47;;;;;;;-141.97;100.00;47872.75;5055279;28;20204;-83
2022/12/10 09:20:18;;;;;;;53.73;25.63;;;;;;;-141.97;100.00;47926.56;5086249;28;20707;-83
2022/12/10 09:22:45;;;;;;;63.97;32.57;;;;;;;-141.97;100.00;47911.19;5033972;28;20198;-83
2022/12/10 09:25:11;;;;;;;56.73;28.07;;;;;;;-141.97;99.86;47905.44;4999364;28;20225;-84
2022/12/10 09:27:38;;;;;;;51.93;26.50;;;;;;;-141.97;98.80;47968.88;5030913;28;20190;-85
2022/12/10 09:30:06;;;;;;;62.23;29.83;;;;;;;-141.97;97.71;47913.13;5014451;28;20252;-84
2022/12/10 09:32:32;;;;;;;88.73;39.17;;;;;;;-141.97;97.94;47911.19;4996131;28;20182;-84
2022/12/10 09:34:57;;;;;;;42.50;20.60;;;;;;;-141.97;96.40;47895.81;5010336;28;20733;-82
2022/12/10 09:37:22;;;;;;;36.63;18.30;;;;;;;-141.97;92.39;48041.91;5010303;28;20214;-85
2022/12/10 09:39:48;;;;;;;34.20;16.60;;;;;;;-141.97;89.57;47907.34;5010599;28;20276;-84
2022/12/10 09:42:52;;;;;;;30.30;15.97;;;;;;;-141.97;86.99;47899.66;5010193;28;20194;-84
2022/12/10 09:45:46;;;;;;;38.90;18.20;;;;;;;-141.97;86.60;47918.88;4971387;28;20206;-83
2022/12/10 09:48:29;;;;;;;43.37;22.40;;;;;;;-141.97;84.35;47882.38;4971385;28;20200;-83
2022/12/10 09:51:12;;;;;;;36.93;18.23;;;;;;;-141.97;84.78;47888.13;4971284;28;20192;-83
2022/12/10 09:53:38;;;;;;;45.20;21.80;;;;;;;-141.97;84.55;47866.97;4971509;28;20254;-84
2022/12/10 09:56:05;;;;;;;38.87;18.07;;;;;;;-141.97;84.13;47866.97;4971272;28;20263;-84
2022/12/10 09:58:30;;;;;;;42.63;21.43;;;;;;;-141.97;86.57;47913.13;4971274;28;20350;-84
2022/12/10 10:01:05;;;;;;;41.13;18.83;;;;;;;-141.97;86.20;47895.81;4970945;28;20266;-84
2022/12/10 10:03:35;;;;;;;52.33;22.77;;;;;;;-141.97;86.41;47874.69;4979519;28;20266;-84
2022/12/10 10:06:03;;;;;;;41.30;19.60;;;;;;;-141.97;86.69;47913.13;5000538;28;20281;-83
2022/12/10 10:08:34;;;;;;;36.67;18.03;;;;;;;-141.97;87.09;47868.91;5029675;28;20197;-84
2022/12/10 10:11:01;;;;;;;33.57;17.33;;;;;;;-141.97;85.09;47868.91;5028947;28;20177;-83
2022/12/10 10:13:35;;;;;;;104.63;55.90;;;;;;;-141.97;87.09;47897.75;5028030;28;20182;-84
2022/12/10 10:16:22;;;;;;;101.73;53.43;;;;;;;-141.97;85.81;47907.34;5027202;28;20752;-83
2022/12/10 10:19:01;;;;;;;48.73;24.80;;;;;;;-141.97;87.55;47907.34;5010515;28;20635;-84
2022/12/10 10:21:32;;;;;;;37.50;18.43;;;;;;;-141.97;89.18;47897.75;5019035;28;20595;-84
2022/12/10 10:23:57;;;;;;;30.10;15.90;;;;;;;-141.97;88.48;47901.59;5035611;28;20634;-84
2022/12/10 10:26:27;;;;;;;29.33;14.43;;;;;;;-141.97;87.65;47874.69;5031442;28;20170;-83
2022/12/10 10:28:58;;;;;;;34.27;15.50;;;;;;;-141.97;88.11;47866.97;5029935;28;20232;-84
2022/12/10 10:31:27;;;;;;;29.40;14.20;;;;;;;-141.97;87.82;47915.03;5030498;28;20617;-84
2022/12/10 10:33:56;;;;;;;33.50;15.67;;;;;;;-141.97;87.67;47903.50;5032088;28;20162;-83
2022/12/10 10:36:42;;;;;;;32.73;16.03;;;;;;;-141.97;86.89;47918.88;5043343;28;20237;-84
2022/12/10 10:39:15;;;;;;;31.40;15.37;;;;;;;-141.97;86.89;47888.13;5053754;28;20208;-83
2022/12/10 10:41:40;;;;;;;29.27;14.33;;;;;;;-141.97;85.54;47895.81;5042149;28;20170;-84
2022/12/10 10:44:15;;;;;;;29.57;14.50;;;;;;;-141.97;84.84;47961.19;5071356;28;20234;-83
2022/12/10 10:46:42;;;;;;;33.03;16.90;;;;;;;-141.97;83.84;47868.91;5057845;28;20175;-83
2022/12/10 10:49:27;;;;;;;35.33;17.37;;;;;;;-141.97;83.71;47886.22;5053795;28;20168;-83
2022/12/10 10:51:59;;;;;;;35.17;16.97;;;;;;;-141.97;83.24;47909.28;5053132;28;20291;-83
2022/12/10 10:54:36;;;;;;;32.77;15.97;;;;;;;-141.97;82.37;47880.44;5053119;28;20211;-83
2022/12/10 10:57:27;;;;;;;32.00;16.87;;;;;;;-141.97;81.51;47897.75;5059597;28;20180;-83
2022/12/10 10:59:56;;;;;;;39.47;16.97;;;;;;;-141.97;81.66;47868.91;5072881;28;20241;-81
2022/12/10 11:02:32;;;;;;;48.73;26.07;;;;;;;-141.97;82.25;47899.66;5063736;28;20695;-84
2022/12/10 11:05:06;;;;;;;44.40;23.50;;;;;;;-141.97;82.74;47880.44;5056729;28;20177;-82